Search for airport 
image banner adimage banner ad
image banner ad

SBPA - Salgado Filho

Located in Porto Alegre, Brazil

ICAO - SBPA, IATA - POA

Data provided by Airmate  

General information

Coordinates: S29°59'38" W51°10'16"
Elevation is 13 feet MSL.
Magnetic variation is -17° East
View others Airports in Rio Grande do Sul

Operational data

Open for public use
Current time UTC:
Current local time:
Weather
METAR: SBPA 021600Z VRB06KT 9999 SCT030 31/20 Q1007
TAF: TAF SBPA 020900Z 0212/0312 12008KT 9999 BKN030 TX28/0217Z TN21/0308Z BECMG 0217/0219 12014KT FEW018 FEW030 PROB40 0300/0306 08007KT 6000 SHRA FEW010 FEW040TCU PROB40 0306/0310 08006KT 8000 TSRA SCT012 FEW032CB RMK PAY
View NOTAMs / SUP AIP / TFR affecting this airport [VIEW]
Communications frequencies: [VIEW]

Runways:

RWY identifierQFULength (ft)Width (ft)SurfaceLDA (ft)
1191°7480148ASP
29271°7480148
286496148UNK

Airport contact information

Address: Porto Alegre Brazil

Other aviation service providers

Flight schools

Aerosul

Aerosul

Satellite view of SBPA